Time;durP1;ratioP1;P1;durP2;ratioP2;P2;SDS_P1;SDS_P2;PMS_P1;PMS_P2;Temp;Humidity;BMP_temperature;BMP_pressure;BME280_temperature;BME280_humidity;BME280_pressure;Samples;Min_cycle;Max_cycle;Signal;HPM_P1;HPM_P2
2021/04/02 00:00:27;;;;;;;9.75;5.63;;;10.80;58.50;;;;;;5027597;28;20055;-81
2021/04/02 00:02:53;;;;;;;7.10;5.88;;;10.70;58.30;;;;;;5028334;28;20057;-81
2021/04/02 00:05:20;;;;;;;8.32;5.78;;;10.70;58.30;;;;;;5028695;28;20049;-81
2021/04/02 00:07:47;;;;;;;8.80;5.80;;;10.70;58.30;;;;;;5028530;28;20200;-80
2021/04/02 00:10:17;;;;;;;7.70;5.22;;;10.60;58.20;;;;;;5010569;28;20050;-80
2021/04/02 00:12:43;;;;;;;9.55;5.22;;;10.60;58.30;;;;;;5006834;28;20412;-82
2021/04/02 00:15:20;;;;;;;9.75;5.57;;;10.60;58.30;;;;;;5008176;28;20060;-79
2021/04/02 00:17:47;;;;;;;5.97;5.03;;;10.60;58.40;;;;;;4974433;28;20101;-81
2021/04/02 00:20:17;;;;;;;7.70;5.20;;;10.50;58.20;;;;;;5008184;28;20464;-80
2021/04/02 00:22:43;;;;;;;7.35;4.50;;;10.50;58.20;;;;;;5007972;28;20065;-79
2021/04/02 00:25:11;;;;;;;5.28;4.70;;;10.50;58.20;;;;;;5008278;28;20037;-81
2021/04/02 00:27:38;;;;;;;7.03;4.80;;;10.50;58.30;;;;;;5008257;28;20045;-79
2021/04/02 00:30:13;;;;;;;5.70;4.68;;;10.40;58.20;;;;;;5008154;28;20405;-82
2021/04/02 00:32:40;;;;;;;6.65;5.20;;;10.40;58.20;;;;;;5007742;28;20124;-80
2021/04/02 00:35:07;;;;;;;9.32;5.00;;;10.40;58.20;;;;;;4990684;28;20053;-81
2021/04/02 00:37:33;;;;;;;7.75;4.70;;;10.30;58.10;;;;;;4990237;28;20038;-81
2021/04/02 00:39:58;;;;;;;7.95;4.85;;;10.40;58.40;;;;;;4990388;28;20030;-81
2021/04/02 00:42:25;;;;;;;7.13;4.85;;;10.30;58.30;;;;;;4990062;28;20042;-80
2021/04/02 00:44:51;;;;;;;6.72;5.07;;;10.30;58.40;;;;;;5007847;28;20119;-81
2021/04/02 00:47:18;;;;;;;6.20;4.15;;;10.30;58.40;;;;;;4989916;28;20046;-80
2021/04/02 00:49:44;;;;;;;6.10;4.32;;;10.20;58.20;;;;;;4989961;28;20405;-78
2021/04/02 00:52:10;;;;;;;6.60;5.20;;;10.30;58.50;;;;;;4973647;28;20622;-82
2021/04/02 00:54:36;;;;;;;4.68;4.00;;;10.20;58.30;;;;;;4974387;28;20034;-79
2021/04/02 00:57:03;;;;;;;7.15;5.00;;;10.20;58.30;;;;;;5008486;28;20046;-82
2021/04/02 00:59:29;;;;;;;8.52;4.75;;;10.20;58.40;;;;;;4958088;28;20289;-81
2021/04/02 01:01:57;;;;;;;6.07;4.03;;;10.20;58.40;;;;;;4974726;28;20030;-80
2021/04/02 01:04:23;;;;;;;6.03;4.45;;;10.20;58.40;;;;;;4975121;28;20084;-80
2021/04/02 01:06:49;;;;;;;4.82;4.32;;;10.20;58.40;;;;;;4991425;28;20038;-83
2021/04/02 01:09:15;;;;;;;6.40;4.05;;;10.20;58.40;;;;;;4971609;28;20092;-81
2021/04/02 01:11:41;;;;;;;5.22;3.97;;;10.10;58.20;;;;;;5002060;28;20056;-80
2021/04/02 01:14:07;;;;;;;6.75;3.97;;;10.10;58.20;;;;;;5028709;28;20076;-80
2021/04/02 01:16:35;;;;;;;4.85;3.92;;;10.10;58.30;;;;;;5016105;28;20045;-81
2021/04/02 01:19:27;;;;;;;5.55;4.30;;;10.10;58.30;;;;;;5000909;28;20604;-82
2021/04/02 01:22:08;;;;;;;4.82;4.07;;;10.10;58.40;;;;;;5027683;28;20045;-82
2021/04/02 01:24:55;;;;;;;5.70;4.15;;;10.00;58.30;;;;;;5009012;28;20452;-81
2021/04/02 01:27:50;;;;;;;10.75;4.07;;;10.10;58.50;;;;;;5008656;28;20554;-81
2021/04/02 01:30:16;;;;;;;6.70;3.97;;;10.00;58.30;;;;;;4990822;28;20061;-80
2021/04/02 01:32:47;;;;;;;6.30;4.03;;;10.00;58.30;;;;;;5010697;28;20469;-80
2021/04/02 01:35:32;;;;;;;5.57;4.05;;;10.10;58.50;;;;;;5010394;28;20060;-80
2021/04/02 01:38:05;;;;;;;6.00;4.30;;;10.00;58.40;;;;;;5027598;28;20059;-81
2021/04/02 01:40:36;;;;;;;6.20;4.13;;;10.00;58.40;;;;;;5027134;28;20107;-80
2021/04/02 01:43:09;;;;;;;3.45;3.03;;;10.00;58.40;;;;;;5010131;28;20041;-80
2021/04/02 01:45:37;;;;;;;4.97;3.88;;;10.00;58.40;;;;;;4991222;28;20489;-79
2021/04/02 01:48:05;;;;;;;4.53;3.95;;;10.00;58.40;;;;;;5011878;28;20055;-82
2021/04/02 01:50:36;;;;;;;7.22;3.53;;;10.00;58.50;;;;;;5012377;28;20484;-83
2021/04/02 01:53:05;;;;;;;8.63;3.63;;;10.00;58.50;;;;;;5012782;28;20042;-82
2021/04/02 01:55:32;;;;;;;3.97;3.38;;;10.00;58.50;;;;;;5013257;28;20148;-81
2021/04/02 01:58:00;;;;;;;4.85;3.85;;;9.90;58.30;;;;;;5012273;28;20132;-81
2021/04/02 02:00:42;;;;;;;3.97;3.57;;;10.00;58.50;;;;;;4997136;28;20041;-83
2021/04/02 02:03:11;;;;;;;4.47;3.42;;;9.90;58.30;;;;;;5012304;28;20055;-80
2021/04/02 02:05:38;;;;;;;8.60;3.75;;;9.90;58.30;;;;;;5030187;28;20040;-79
2021/04/02 02:08:17;;;;;;;5.05;3.63;;;10.00;59.10;;;;;;5012347;28;20453;-79
2021/04/02 02:10:54;;;;;;;5.75;3.88;;;9.90;58.30;;;;;;5011982;28;20080;-79
2021/04/02 02:13:22;;;;;;;4.70;3.47;;;9.90;58.30;;;;;;5012502;28;20052;-81
2021/04/02 02:15:58;;;;;;;4.80;3.03;;;9.90;58.40;;;;;;4996798;28;20057;-80
2021/04/02 02:18:27;;;;;;;4.55;3.08;;;9.90;58.50;;;;;;4980779;28;20038;-81
2021/04/02 02:20:54;;;;;;;4.57;3.30;;;9.90;58.50;;;;;;4993253;28;20064;-80
2021/04/02 02:23:23;;;;;;;5.43;3.65;;;9.90;58.50;;;;;;4993146;28;20054;-80
2021/04/02 02:25:50;;;;;;;9.27;3.38;;;9.90;58.50;;;;;;4977137;28;20038;-79
2021/04/02 02:28:18;;;;;;;8.40;3.80;;;9.80;58.40;;;;;;4993643;28;20401;-80
2021/04/02 02:30:45;;;;;;;5.20;3.47;;;9.90;58.60;;;;;;4977437;28;20307;-80
2021/04/02 02:33:33;;;;;;;5.40;3.63;;;9.90;58.60;;;;;;4979596;28;20101;-81
2021/04/02 02:36:08;;;;;;;8.73;3.90;;;9.90;58.60;;;;;;4993404;28;20107;-81
2021/04/02 02:38:35;;;;;;;5.53;3.92;;;9.90;58.60;;;;;;4977463;28;20056;-80
2021/04/02 02:41:04;;;;;;;5.72;3.78;;;9.90;58.60;;;;;;5011503;28;20466;-80
2021/04/02 02:43:32;;;;;;;5.75;3.95;;;9.90;58.60;;;;;;4993040;28;20045;-82
2021/04/02 02:45:59;;;;;;;6.10;3.90;;;9.90;58.60;;;;;;4993152;28;20038;-80
2021/04/02 02:48:25;;;;;;;4.80;3.25;;;9.90;58.60;;;;;;5009308;28;20048;-80
2021/04/02 02:50:57;;;;;;;4.50;3.40;;;9.80;58.40;;;;;;5010792;28;20058;-81
2021/04/02 02:53:28;;;;;;;5.43;3.33;;;9.80;58.50;;;;;;5010630;28;20092;-81
2021/04/02 02:55:58;;;;;;;7.78;4.25;;;9.80;58.40;;;;;;4993116;28;20073;-79
2021/04/02 02:58:28;;;;;;;5.00;3.80;;;9.80;58.40;;;;;;4993115;28;20125;-81
2021/04/02 03:00:56;;;;;;;5.13;3.50;;;9.80;58.40;;;;;;4976866;28;20038;-80
2021/04/02 03:03:26;;;;;;;6.70;3.90;;;9.80;58.50;;;;;;4992677;28;20034;-80
2021/04/02 03:05:59;;;;;;;4.15;3.75;;;9.80;58.50;;;;;;4993062;28;20108;-79
2021/04/02 03:08:42;;;;;;;5.07;3.92;;;9.80;58.50;;;;;;4992988;28;20041;-79
2021/04/02 03:11:11;;;;;;;4.32;3.50;;;9.80;58.60;;;;;;4992772;28;20500;-81
2021/04/02 03:13:40;;;;;;;4.47;4.05;;;9.70;58.40;;;;;;5004021;28;20138;-80
2021/04/02 03:16:07;;;;;;;3.88;3.50;;;9.70;58.50;;;;;;5012688;28;20124;-81
2021/04/02 03:18:34;;;;;;;4.90;3.83;;;9.70;58.50;;;;;;5012325;28;20045;-79
2021/04/02 03:21:06;;;;;;;5.63;3.75;;;9.70;58.50;;;;;;4996946;28;20048;-81
2021/04/02 03:23:35;;;;;;;4.85;3.67;;;9.70;58.50;;;;;;4996107;28;20048;-80
2021/04/02 03:26:02;;;;;;;7.30;4.18;;;9.70;58.60;;;;;;5012354;28;20072;-81
2021/04/02 03:28:29;;;;;;;4.40;4.00;;;9.70;58.60;;;;;;5029388;28;20041;-82
2021/04/02 03:30:57;;;;;;;5.57;4.10;;;9.70;58.60;;;;;;5029325;28;20042;-80
2021/04/02 03:33:34;;;;;;;5.20;3.97;;;9.70;58.50;;;;;;5035602;28;20045;-81
2021/04/02 03:36:14;;;;;;;5.18;4.32;;;9.70;58.60;;;;;;5026158;28;20029;-81
2021/04/02 03:38:44;;;;;;;6.50;4.30;;;9.60;58.40;;;;;;5017543;28;20424;-81
2021/04/02 03:41:23;;;;;;;4.50;4.10;;;9.70;58.50;;;;;;5015643;28;20053;-79
2021/04/02 03:43:52;;;;;;;6.25;4.10;;;9.60;58.40;;;;;;5001729;28;20060;-80
2021/04/02 03:46:20;;;;;;;6.53;4.85;;;9.60;58.30;;;;;;5015502;28;20041;-79
2021/04/02 03:48:51;;;;;;;4.95;3.90;;;9.60;58.40;;;;;;5015439;28;20059;-80
2021/04/02 03:51:24;;;;;;;6.85;4.70;;;9.60;58.40;;;;;;5048375;28;20141;-79
2021/04/02 03:53:57;;;;;;;7.18;4.50;;;9.60;58.40;;;;;;5033336;28;20124;-79
2021/04/02 03:56:34;;;;;;;5.88;4.28;;;9.60;58.50;;;;;;5048494;28;20029;-80
2021/04/02 03:59:02;;;;;;;5.05;3.70;;;9.60;58.50;;;;;;5015429;28;20067;-79
2021/04/02 04:01:37;;;;;;;4.90;3.83;;;9.60;58.50;;;;;;5048267;28;20034;-80
2021/04/02 04:04:06;;;;;;;6.77;4.27;;;9.60;58.50;;;;;;5015055;28;20041;-80
2021/04/02 04:06:38;;;;;;;5.43;4.63;;;9.60;58.50;;;;;;5031440;28;20042;-80
2021/04/02 04:09:11;;;;;;;5.55;4.65;;;9.60;58.50;;;;;;4998752;28;20549;-79
2021/04/02 04:11:40;;;;;;;6.90;4.57;;;9.50;58.40;;;;;;5031349;28;20041;-80
2021/04/02 04:14:10;;;;;;;4.93;3.92;;;9.50;58.30;;;;;;5031709;28;20052;-78
2021/04/02 04:16:40;;;;;;;6.80;4.05;;;9.60;58.60;;;;;;5015352;28;20040;-77
2021/04/02 04:19:07;;;;;;;6.97;4.78;;;9.50;58.40;;;;;;4998975;28;20116;-78
2021/04/02 04:21:41;;;;;;;5.40;4.57;;;9.50;58.40;;;;;;4999368;28;20037;-77
2021/04/02 04:24:15;;;;;;;6.85;4.68;;;9.50;58.40;;;;;;5033263;28;20123;-79
2021/04/02 04:26:44;;;;;;;6.65;5.15;;;9.50;58.40;;;;;;4998890;28;20052;-80
2021/04/02 04:29:17;;;;;;;7.43;4.68;;;9.50;58.40;;;;;;5031301;28;20038;-80
2021/04/02 04:31:43;;;;;;;6.70;4.32;;;9.50;58.50;;;;;;5047747;28;20056;-81
2021/04/02 04:34:10;;;;;;;5.35;4.60;;;9.50;58.40;;;;;;5014631;28;20029;-82
2021/04/02 04:36:40;;;;;;;10.38;4.60;;;9.50;58.50;;;;;;4998439;28;20540;-81
2021/04/02 04:39:06;;;;;;;7.43;5.03;;;9.50;58.50;;;;;;5014357;28;20041;-80
2021/04/02 04:41:34;;;;;;;6.38;4.88;;;9.40;58.30;;;;;;5030897;28;20052;-80
2021/04/02 04:44:03;;;;;;;7.88;5.28;;;9.40;58.30;;;;;;5014387;28;20037;-80
2021/04/02 04:46:30;;;;;;;7.57;5.03;;;9.50;58.50;;;;;;5030533;28;20065;-80
2021/04/02 04:48:56;;;;;;;7.00;4.82;;;9.50;58.50;;;;;;5026788;28;20033;-79
2021/04/02 04:51:26;;;;;;;5.93;5.13;;;9.50;58.50;;;;;;5028217;28;20069;-82
2021/04/02 04:53:56;;;;;;;6.53;5.03;;;9.40;58.40;;;;;;5028494;28;20088;-80
2021/04/02 04:56:26;;;;;;;5.97;5.38;;;9.40;58.40;;;;;;5028465;28;20056;-80
2021/04/02 04:58:55;;;;;;;6.80;5.40;;;9.40;58.40;;;;;;4994297;28;20107;-80
2021/04/02 05:01:23;;;;;;;6.45;4.95;;;9.40;58.40;;;;;;5010465;28;20236;-79
2021/04/02 05:03:50;;;;;;;7.63;5.47;;;9.40;58.40;;;;;;5026449;28;20140;-80
2021/04/02 05:06:21;;;;;;;5.70;5.13;;;9.40;58.40;;;;;;5027522;28;20227;-80
2021/04/02 05:08:48;;;;;;;6.97;6.20;;;9.40;58.40;;;;;;5026613;28;20044;-78
2021/04/02 05:11:18;;;;;;;7.95;5.80;;;9.40;58.40;;;;;;5025879;28;20053;-81
2021/04/02 05:13:46;;;;;;;4.90;4.40;;;9.40;58.40;;;;;;5008401;28;20132;-79
2021/04/02 05:16:13;;;;;;;6.13;5.22;;;9.40;58.50;;;;;;5024968;28;20099;-80
2021/04/02 05:18:39;;;;;;;7.07;5.15;;;9.40;58.40;;;;;;4992076;28;20045;-79
2021/04/02 05:21:06;;;;;;;6.60;5.30;;;9.30;58.30;;;;;;5008433;28;20143;-78
2021/04/02 05:23:32;;;;;;;6.80;5.15;;;9.30;58.90;;;;;;5027042;28;20037;-80
2021/04/02 05:25:58;;;;;;;5.68;5.10;;;9.30;58.30;;;;;;5026233;28;20037;-80
2021/04/02 05:28:24;;;;;;;7.30;5.65;;;9.30;58.80;;;;;;5026501;28;20053;-81
2021/04/02 05:30:50;;;;;;;10.55;4.95;;;9.20;58.10;;;;;;5026603;28;20136;-82
2021/04/02 05:33:16;;;;;;;7.30;4.80;;;9.30;58.30;;;;;;5008687;28;20029;-79
2021/04/02 05:35:42;;;;;;;7.07;4.72;;;9.30;58.30;;;;;;5024721;28;20389;-81
2021/04/02 05:38:08;;;;;;;7.50;5.00;;;9.20;58.10;;;;;;5026978;28;20071;-80
2021/04/02 05:40:37;;;;;;;5.22;4.35;;;9.20;58.10;;;;;;5026451;28;20154;-79
2021/04/02 05:43:21;;;;;;;5.68;4.35;;;9.20;58.20;;;;;;5008074;28;20041;-81
2021/04/02 05:45:48;;;;;;;6.50;5.03;;;9.20;58.30;;;;;;4995661;28;20065;-80
2021/04/02 05:48:16;;;;;;;5.65;3.30;;;9.20;58.20;;;;;;5045665;28;20026;-86
2021/04/02 05:50:43;;;;;;;9.45;4.10;;;9.20;58.10;;;;;;5047747;28;20045;-81
2021/04/02 05:53:17;;;;;;;6.50;3.13;;;9.20;57.80;;;;;;5028686;28;20096;-80
2021/04/02 05:55:44;;;;;;;8.60;3.85;;;9.20;57.50;;;;;;5026947;28;20052;-86
2021/04/02 05:58:12;;;;;;;11.77;3.30;;;9.20;57.30;;;;;;4992119;28;20064;-84
2021/04/02 06:00:40;;;;;;;7.35;2.72;;;9.10;56.80;;;;;;5008732;28;20095;-84
2021/04/02 06:03:07;;;;;;;8.88;2.63;;;9.10;56.50;;;;;;4994896;28;20082;-80
2021/04/02 06:05:33;;;;;;;4.07;2.35;;;9.00;56.10;;;;;;5009425;28;20449;-82
2021/04/02 06:08:00;;;;;;;9.25;3.30;;;9.00;55.90;;;;;;4992571;28;20041;-81
2021/04/02 06:10:27;;;;;;;8.85;2.40;;;9.00;55.70;;;;;;5032590;28;20053;-89
2021/04/02 06:12:56;;;;;;;4.38;2.67;;;8.90;55.30;;;;;;5012362;28;20054;-84
2021/04/02 06:15:22;;;;;;;8.30;2.50;;;8.90;55.10;;;;;;5026206;28;20072;-89
2021/04/02 06:18:06;;;;;;;6.45;2.90;;;8.90;54.90;;;;;;5011133;28;20034;-87
2021/04/02 06:20:49;;;;;;;6.15;2.95;;;8.80;54.30;;;;;;5027394;28;20045;-84
2021/04/02 06:23:17;;;;;;;9.60;3.67;;;8.80;54.10;;;;;;5008258;28;20052;-88
2021/04/02 06:25:48;;;;;;;4.50;2.97;;;8.80;54.20;;;;;;5012670;28;20461;-83
2021/04/02 06:28:25;;;;;;;5.63;2.70;;;8.80;54.10;;;;;;5014392;28;20253;-83
2021/04/02 06:30:57;;;;;;;11.35;3.20;;;8.80;53.90;;;;;;5009849;28;20067;-87
2021/04/02 06:33:33;;;;;;;5.22;3.00;;;8.80;53.80;;;;;;5015911;28;20079;-83
2021/04/02 06:35:59;;;;;;;7.28;3.35;;;8.80;53.70;;;;;;5009603;28;20057;-85
2021/04/02 06:38:38;;;;;;;8.48;3.53;;;8.70;53.50;;;;;;5031258;28;20500;-91
2021/04/02 06:41:05;;;;;;;7.55;3.40;;;8.80;53.50;;;;;;5027872;28;20034;-91
2021/04/02 06:43:51;;;;;;;3.65;2.78;;;8.80;53.40;;;;;;4993034;28;20033;-90
2021/04/02 06:46:19;;;;;;;8.27;3.63;;;8.80;53.20;;;;;;5026494;28;20609;-89
2021/04/02 06:48:45;;;;;;;4.80;3.03;;;8.80;53.20;;;;;;5028291;28;20038;-89
2021/04/02 06:51:14;;;;;;;8.68;3.08;;;8.80;53.10;;;;;;5011910;28;20041;-84
2021/04/02 06:53:43;;;;;;;7.93;3.30;;;8.80;53.00;;;;;;5018853;28;20033;-80
2021/04/02 06:56:12;;;;;;;12.65;4.10;;;8.90;53.00;;;;;;5009140;28;20060;-81
2021/04/02 06:58:40;;;;;;;6.45;3.65;;;8.90;52.90;;;;;;4996248;28;20401;-84
2021/04/02 07:01:07;;;;;;;11.63;3.90;;;8.90;52.80;;;;;;4992652;28;20638;-80
2021/04/02 07:03:35;;;;;;;4.28;3.13;;;9.00;52.80;;;;;;5008571;28;20106;-79
2021/04/02 07:06:04;;;;;;;7.70;3.15;;;9.00;52.60;;;;;;5009305;28;20401;-86
2021/04/02 07:08:32;;;;;;;8.98;2.97;;;9.10;52.60;;;;;;4993080;28;20037;-84
2021/04/02 07:10:59;;;;;;;7.47;3.45;;;9.00;52.20;;;;;;5032082;28;20238;-80
2021/04/02 07:13:31;;;;;;;14.07;3.78;;;9.10;52.20;;;;;;5011588;28;20121;-82
2021/04/02 07:15:59;;;;;;;5.32;3.13;;;9.10;52.10;;;;;;5028352;28;20037;-84
2021/04/02 07:18:26;;;;;;;5.78;2.72;;;9.10;51.90;;;;;;5012743;28;20043;-84
2021/04/02 07:20:53;;;;;;;9.75;3.30;;;9.10;51.90;;;;;;5012217;28;20519;-89
2021/04/02 07:23:20;;;;;;;5.68;3.00;;;9.10;51.70;;;;;;4995515;28;20221;-81
2021/04/02 07:25:46;;;;;;;7.82;2.90;;;9.10;51.70;;;;;;5011200;28;20041;-82
2021/04/02 07:28:12;;;;;;;7.70;3.72;;;9.10;51.60;;;;;;5013475;28;20460;-85
2021/04/02 07:30:38;;;;;;;15.73;3.33;;;9.10;51.50;;;;;;5008953;28;20052;-79
2021/04/02 07:33:09;;;;;;;5.25;2.85;;;9.10;52.00;;;;;;5041633;28;20033;-83
2021/04/02 07:35:40;;;;;;;4.85;3.28;;;9.10;51.30;;;;;;5011910;28;20547;-81
2021/04/02 07:38:14;;;;;;;8.00;3.17;;;9.10;51.20;;;;;;5011426;28;20064;-80
2021/04/02 07:40:41;;;;;;;6.30;3.40;;;9.20;51.30;;;;;;5030809;28;20105;-80
2021/04/02 07:43:08;;;;;;;7.90;3.53;;;9.20;51.30;;;;;;5029638;28;20033;-82
2021/04/02 07:45:37;;;;;;;8.65;3.55;;;9.30;51.40;;;;;;5029254;28;20040;-80
2021/04/02 07:48:29;;;;;;;7.47;2.80;;;9.40;51.40;;;;;;5027585;28;20768;-81
2021/04/02 07:51:00;;;;;;;6.90;3.08;;;9.40;51.00;;;;;;5027011;28;20056;-84
2021/04/02 07:53:26;;;;;;;8.68;3.50;;;9.40;51.00;;;;;;5016349;28;20041;-83
2021/04/02 07:56:03;;;;;;;6.88;3.03;;;9.40;50.80;;;;;;5029978;28;20224;-87
2021/04/02 07:58:31;;;;;;;7.15;2.88;;;9.50;50.80;;;;;;5035008;28;20045;-83
2021/04/02 08:01:00;;;;;;;8.80;2.95;;;9.50;50.70;;;;;;5032698;28;20053;-81
2021/04/02 08:03:30;;;;;;;8.18;3.13;;;9.60;50.70;;;;;;4995144;28;20033;-85
2021/04/02 08:06:02;;;;;;;8.55;2.97;;;9.60;50.60;;;;;;4993284;28;20052;-85
2021/04/02 08:08:43;;;;;;;6.15;2.83;;;9.60;50.40;;;;;;4990847;28;20620;-84
2021/04/02 08:11:19;;;;;;;8.52;2.95;;;9.70;50.30;;;;;;4992265;28;20050;-87
2021/04/02 08:14:14;;;;;;;6.20;3.28;;;9.80;50.40;;;;;;5005248;28;20071;-83
2021/04/02 08:16:56;;;;;;;6.85;3.17;;;9.90;50.40;;;;;;5011227;28;20592;-90
2021/04/02 08:19:37;;;;;;;9.65;2.92;;;9.90;50.00;;;;;;5007294;28;20048;-89
2021/04/02 08:22:06;;;;;;;7.13;2.53;;;10.00;50.00;;;;;;4990212;28;20041;-82
2021/04/02 08:24:34;;;;;;;10.93;3.20;;;10.10;50.10;;;;;;4994044;28;20484;-84
2021/04/02 08:27:02;;;;;;;7.32;3.00;;;10.20;50.00;;;;;;5011573;28;20160;-83
2021/04/02 08:29:30;;;;;;;8.40;3.30;;;10.20;49.80;;;;;;4993956;28;20040;-85
2021/04/02 08:32:01;;;;;;;10.60;3.83;;;10.20;49.50;;;;;;5027413;28;20190;-84
2021/04/02 08:34:30;;;;;;;8.57;3.42;;;10.20;49.30;;;;;;5011985;28;20833;-90
2021/04/02 08:37:05;;;;;;;10.93;3.65;;;10.20;49.20;;;;;;5027542;28;20045;-83
2021/04/02 08:39:31;;;;;;;10.98;3.70;;;10.30;49.20;;;;;;5029139;28;20049;-85
2021/04/02 08:42:02;;;;;;;7.18;3.38;;;10.30;49.20;;;;;;5010757;28;20041;-86
2021/04/02 08:44:40;;;;;;;11.70;2.80;;;10.30;48.90;;;;;;5011238;28;20256;-84
2021/04/02 08:47:14;;;;;;;6.65;2.80;;;10.40;48.90;;;;;;5012860;28;20049;-90
2021/04/02 08:49:40;;;;;;;6.85;2.65;;;10.40;48.80;;;;;;4996445;28;20044;-89
2021/04/02 08:52:12;;;;;;;8.52;2.85;;;10.50;49.00;;;;;;4994895;28;20371;-84
2021/04/02 08:54:38;;;;;;;6.13;2.92;;;10.50;48.60;;;;;;5008957;28;20089;-83
2021/04/02 08:57:07;;;;;;;13.40;3.55;;;10.60;48.80;;;;;;4990255;28;20041;-83
2021/04/02 08:59:35;;;;;;;7.78;3.17;;;10.60;48.50;;;;;;5010039;28;20068;-81
2021/04/02 09:02:01;;;;;;;8.88;3.42;;;10.70;48.60;;;;;;5028374;28;20163;-87
2021/04/02 09:04:28;;;;;;;6.00;2.90;;;10.70;48.40;;;;;;5027998;28;20064;-86
2021/04/02 09:06:55;;;;;;;8.68;2.78;;;10.60;48.10;;;;;;5027505;28;20041;-86
2021/04/02 09:09:22;;;;;;;8.68;3.10;;;10.60;48.00;;;;;;5027607;28;20576;-83
2021/04/02 09:11:52;;;;;;;9.15;2.85;;;10.60;47.90;;;;;;5029714;28;20061;-84
2021/04/02 09:14:18;;;;;;;6.18;2.20;;;10.60;47.90;;;;;;4991414;28;20045;-81
2021/04/02 09:16:47;;;;;;;7.60;3.17;;;10.60;48.50;;;;;;5007503;28;20494;-84
2021/04/02 09:19:15;;;;;;;4.53;2.03;;;10.70;47.90;;;;;;5008259;28;20390;-86
2021/04/02 09:21:41;;;;;;;4.95;2.25;;;10.80;48.00;;;;;;5007810;28;20141;-89
2021/04/02 09:24:08;;;;;;;7.85;2.80;;;10.80;47.90;;;;;;4989844;28;20046;-83
2021/04/02 09:26:43;;;;;;;6.63;2.75;;;10.80;47.80;;;;;;4971530;28;20414;-80
2021/04/02 09:29:14;;;;;;;8.43;2.58;;;10.90;47.70;;;;;;4988455;28;20149;-82
2021/04/02 09:31:42;;;;;;;9.07;2.30;;;11.00;47.80;;;;;;4958136;28;20049;-85
2021/04/02 09:34:11;;;;;;;5.00;2.65;;;11.10;47.90;;;;;;4989168;28;20066;-82
2021/04/02 09:36:41;;;;;;;5.70;2.70;;;11.10;47.80;;;;;;5005835;28;20042;-85
2021/04/02 09:39:23;;;;;;;11.10;2.65;;;11.10;47.90;;;;;;4973599;28;20038;-82
2021/04/02 09:41:56;;;;;;;7.22;3.03;;;11.10;48.00;;;;;;5007114;28;20060;-83
2021/04/02 09:44:27;;;;;;;5.13;2.60;;;11.20;47.90;;;;;;4988721;28;20124;-83
2021/04/02 09:47:05;;;;;;;7.53;2.85;;;11.20;47.80;;;;;;4989298;28;20493;-80
2021/04/02 09:49:32;;;;;;;9.30;2.25;;;11.20;47.70;;;;;;4988269;28;20456;-80
2021/04/02 09:52:02;;;;;;;5.75;3.08;;;11.20;47.70;;;;;;4988749;28;20038;-80
2021/04/02 09:54:31;;;;;;;5.72;2.90;;;11.20;47.70;;;;;;4989837;28;20177;-85
2021/04/02 09:57:02;;;;;;;7.13;3.38;;;11.10;47.50;;;;;;4989074;28;20049;-84
2021/04/02 09:59:28;;;;;;;4.40;2.50;;;11.20;47.80;;;;;;4988788;28;20124;-80
2021/04/02 10:01:54;;;;;;;5.20;2.60;;;11.10;47.70;;;;;;4989428;28;20065;-83
2021/04/02 10:04:20;;;;;;;5.18;2.85;;;11.10;47.60;;;;;;5008296;28;20050;-81
2021/04/02 10:06:46;;;;;;;8.52;2.90;;;11.10;47.50;;;;;;5008386;28;20050;-80
2021/04/02 10:09:13;;;;;;;5.88;2.22;;;11.10;47.40;;;;;;5012413;28;20022;-81
2021/04/02 10:11:45;;;;;;;5.72;2.67;;;11.10;47.30;;;;;;5012797;28;20041;-81
2021/04/02 10:14:12;;;;;;;9.57;2.92;;;11.10;47.30;;;;;;5045651;28;20048;-80
2021/04/02 10:16:39;;;;;;;6.88;2.92;;;11.10;47.30;;;;;;5031936;28;20060;-82
2021/04/02 10:19:06;;;;;;;10.32;3.38;;;11.00;47.00;;;;;;5011762;28;20128;-83
2021/04/02 10:21:32;;;;;;;6.50;3.38;;;11.10;47.30;;;;;;5005124;28;20034;-84
2021/04/02 10:24:02;;;;;;;11.98;3.22;;;11.00;47.10;;;;;;5011316;28;20068;-84
2021/04/02 10:26:28;;;;;;;11.48;2.95;;;11.00;47.00;;;;;;4993051;28;20503;-82
2021/04/02 10:28:55;;;;;;;7.40;2.90;;;11.00;47.10;;;;;;4991501;28;20095;-84
2021/04/02 10:31:22;;;;;;;11.07;3.35;;;11.00;47.10;;;;;;4992196;28;20161;-82
2021/04/02 10:33:48;;;;;;;7.57;3.03;;;11.00;47.00;;;;;;5008603;28;20457;-84
2021/04/02 10:36:15;;;;;;;4.55;2.42;;;11.00;47.00;;;;;;4991592;28;20061;-81
2021/04/02 10:38:41;;;;;;;9.07;3.25;;;11.10;47.10;;;;;;5007731;28;20124;-83
2021/04/02 10:41:08;;;;;;;6.00;2.20;;;11.00;46.90;;;;;;5007545;28;20037;-82
2021/04/02 10:43:34;;;;;;;8.82;2.75;;;11.10;47.10;;;;;;5025628;28;20111;-82
2021/04/02 10:46:01;;;;;;;6.53;3.25;;;11.10;47.10;;;;;;5013510;28;20037;-83
2021/04/02 10:48:27;;;;;;;10.57;3.10;;;11.10;47.00;;;;;;5012379;28;20108;-82
2021/04/02 10:50:54;;;;;;;6.18;2.72;;;11.10;47.00;;;;;;5012429;28;20132;-84
2021/04/02 10:53:21;;;;;;;8.55;2.85;;;11.10;46.90;;;;;;4997088;28;20056;-88
2021/04/02 10:55:48;;;;;;;9.77;3.45;;;11.10;46.90;;;;;;4990869;28;20034;-80
2021/04/02 10:58:14;;;;;;;6.05;2.83;;;11.10;46.90;;;;;;5022623;28;20037;-82
2021/04/02 11:00:40;;;;;;;6.70;3.28;;;11.10;46.90;;;;;;5012130;28;20049;-83
2021/04/02 11:03:07;;;;;;;7.72;3.05;;;11.10;46.90;;;;;;5004226;28;20405;-83
2021/04/02 11:05:34;;;;;;;6.32;2.92;;;11.10;46.80;;;;;;4976425;28;20045;-81
2021/04/02 11:08:00;;;;;;;7.88;3.20;;;11.10;46.80;;;;;;4995893;28;20041;-84
2021/04/02 11:10:27;;;;;;;4.03;2.83;;;11.10;46.90;;;;;;5009298;28;20079;-85
2021/04/02 11:12:53;;;;;;;6.60;3.20;;;11.20;47.10;;;;;;5009412;28;20052;-81
2021/04/02 11:15:20;;;;;;;10.75;3.97;;;11.10;46.90;;;;;;4992676;28;20046;-81
2021/04/02 11:17:47;;;;;;;7.40;3.72;;;11.10;46.80;;;;;;4993181;28;20058;-81
2021/04/02 11:20:16;;;;;;;5.65;2.88;;;11.20;47.00;;;;;;5011870;28;20084;-84
2021/04/02 11:22:42;;;;;;;12.65;3.45;;;11.20;47.00;;;;;;5029530;28;20128;-85
2021/04/02 11:25:10;;;;;;;7.63;3.30;;;11.20;47.00;;;;;;5029116;28;20126;-84
2021/04/02 11:27:37;;;;;;;6.25;3.17;;;11.20;47.00;;;;;;5017890;28;20050;-84
2021/04/02 11:30:08;;;;;;;9.50;4.07;;;11.20;47.00;;;;;;5018231;28;20056;-84
2021/04/02 11:32:34;;;;;;;5.85;2.80;;;11.20;47.00;;;;;;5018500;28;20030;-83
2021/04/02 11:35:00;;;;;;;7.63;3.10;;;11.30;47.10;;;;;;5014351;28;20041;-83
2021/04/02 11:37:27;;;;;;;12.20;2.97;;;11.30;47.00;;;;;;4996430;28;20052;-84
2021/04/02 11:39:52;;;;;;;5.78;2.92;;;11.30;46.90;;;;;;4995589;28;20063;-85
2021/04/02 11:42:19;;;;;;;5.60;2.95;;;11.30;46.90;;;;;;5011070;28;20033;-86
2021/04/02 11:44:45;;;;;;;8.60;3.10;;;11.30;46.90;;;;;;5012718;28;20040;-87
2021/04/02 11:47:13;;;;;;;6.93;3.70;;;11.30;46.80;;;;;;5011664;28;20045;-85
2021/04/02 11:49:39;;;;;;;3.22;2.60;;;11.40;46.90;;;;;;4992540;28;20392;-83
2021/04/02 11:52:06;;;;;;;6.25;3.05;;;11.40;46.90;;;;;;5005625;28;20512;-85
2021/04/02 11:54:33;;;;;;;9.52;3.95;;;11.40;46.90;;;;;;4994912;28;20041;-84
2021/04/02 11:56:59;;;;;;;13.15;3.33;;;11.40;46.80;;;;;;4995086;28;20037;-84
2021/04/02 11:59:25;;;;;;;8.13;3.33;;;11.40;46.80;;;;;;5030249;28;20037;-84
2021/04/02 12:01:51;;;;;;;7.70;3.08;;;11.40;46.70;;;;;;4995507;28;20167;-91
2021/04/02 12:04:17;;;;;;;7.32;3.10;;;11.40;46.60;;;;;;5011876;28;20045;-87
2021/04/02 12:06:43;;;;;;;9.63;3.78;;;11.50;47.30;;;;;;4995302;28;20045;-87
2021/04/02 12:09:11;;;;;;;9.50;3.35;;;11.50;46.60;;;;;;5012399;28;20033;-84
2021/04/02 12:11:41;;;;;;;10.70;2.80;;;11.50;46.50;;;;;;5029634;28;20507;-89
2021/04/02 12:14:07;;;;;;;5.45;2.80;;;11.50;46.40;;;;;;5017266;28;20068;-82
2021/04/02 12:16:36;;;;;;;9.63;3.53;;;11.50;46.40;;;;;;5017671;28;20067;-88
2021/04/02 12:19:04;;;;;;;7.85;3.42;;;11.60;46.70;;;;;;5002141;28;20045;-93
2021/04/02 12:21:30;;;;;;;8.10;3.17;;;11.60;46.70;;;;;;4978732;28;20030;-91
2021/04/02 12:23:58;;;;;;;9.55;4.03;;;11.60;46.70;;;;;;4987131;23;20054;-84
2021/04/02 12:26:25;;;;;;;7.40;3.10;;;11.70;46.90;;;;;;4965974;28;20056;-86
2021/04/02 12:28:53;;;;;;;7.03;3.35;;;11.70;46.80;;;;;;4990700;28;20050;-88
2021/04/02 12:31:20;;;;;;;9.38;3.65;;;11.70;46.80;;;;;;4973289;28;20470;-85
2021/04/02 12:33:46;;;;;;;7.63;3.05;;;11.80;47.00;;;;;;4995943;28;20077;-84
2021/04/02 12:36:12;;;;;;;6.05;3.25;;;11.80;46.90;;;;;;4979648;28;20041;-86
2021/04/02 12:38:39;;;;;;;8.05;3.47;;;11.80;46.90;;;;;;4989213;28;20082;-85
2021/04/02 12:41:05;;;;;;;8.68;3.30;;;11.80;46.80;;;;;;4982879;28;20518;-84
2021/04/02 12:43:32;;;;;;;6.72;3.80;;;11.80;46.80;;;;;;4976403;28;20037;-89
2021/04/02 12:45:58;;;;;;;12.73;3.88;;;11.90;47.00;;;;;;5008699;28;20473;-83
2021/04/02 12:48:27;;;;;;;7.55;3.90;;;11.90;46.90;;;;;;4984238;28;20039;-86
2021/04/02 12:50:58;;;;;;;6.10;3.90;;;11.90;46.80;;;;;;4939917;28;20085;-89
2021/04/02 12:53:25;;;;;;;5.97;3.20;;;12.00;46.90;;;;;;4966310;28;20038;-93
2021/04/02 12:55:52;;;;;;;7.38;2.88;;;12.00;46.80;;;;;;4978267;28;20046;-86
2021/04/02 12:58:18;;;;;;;7.57;3.47;;;12.00;46.70;;;;;;4964408;28;20043;-84
2021/04/02 13:00:45;;;;;;;6.60;3.63;;;12.00;46.60;;;;;;4936733;28;20152;-85